Time;durP1;ratioP1;P1;durP2;ratioP2;P2;SDS_P1;SDS_P2;PMS_P1;PMS_P2;Temp;Humidity;BMP_temperature;BMP_pressure;BME280_temperature;BME280_humidity;BME280_pressure;Samples;Min_cycle;Max_cycle;Signal;HPM_P1;HPM_P2
2023/09/24 00:01:12;;;;;;;2.97;1.50;;;10.80;99.90;;;;;;8394371;28;20178;-80
2023/09/24 00:05:13;;;;;;;2.80;1.65;;;10.80;99.90;;;;;;8400617;28;20035;-79
2023/09/24 00:09:14;;;;;;;7.03;1.85;;;10.70;99.90;;;;;;8410004;28;20392;-79
2023/09/24 00:13:15;;;;;;;2.95;2.13;;;10.60;99.90;;;;;;8411128;28;20013;-78
2023/09/24 00:17:16;;;;;;;4.35;1.65;;;10.60;99.90;;;;;;8394145;28;20028;-79
2023/09/24 00:21:17;;;;;;;5.70;2.10;;;10.40;99.90;;;;;;8391676;28;20020;-79
2023/09/24 00:25:18;;;;;;;5.47;2.00;;;10.40;99.90;;;;;;8414625;28;20485;-79
2023/09/24 00:29:18;;;;;;;2.70;1.90;;;10.40;99.90;;;;;;8388587;28;20028;-80
2023/09/24 00:33:19;;;;;;;2.45;1.85;;;10.30;99.90;;;;;;8382075;28;20411;-79
2023/09/24 00:37:20;;;;;;;3.60;2.00;;;10.40;99.90;;;;;;8395430;28;20020;-79
2023/09/24 00:41:20;;;;;;;2.45;1.60;;;10.30;99.90;;;;;;8399171;28;20023;-79
2023/09/24 00:45:28;;;;;;;3.35;1.90;;;10.70;99.90;;;;;;8390673;28;20500;-80
2023/09/24 00:49:29;;;;;;;2.40;1.75;;;10.90;99.90;;;;;;8386935;28;20039;-79
2023/09/24 00:53:33;;;;;;;4.90;1.80;;;10.70;99.90;;;;;;8424047;28;20484;-79
2023/09/24 00:57:34;;;;;;;2.83;1.92;;;10.80;99.90;;;;;;8395803;28;20052;-80
2023/09/24 01:01:34;;;;;;;2.97;1.90;;;10.60;99.90;;;;;;8390720;28;20024;-78
2023/09/24 01:05:35;;;;;;;5.05;2.10;;;10.50;99.90;;;;;;8420384;28;20492;-79
2023/09/24 01:09:36;;;;;;;2.28;1.88;;;10.40;99.90;;;;;;8406736;28;20515;-80
2023/09/24 01:13:39;;;;;;;4.85;2.10;;;10.40;99.90;;;;;;8412581;28;20039;-79
2023/09/24 01:17:39;;;;;;;2.63;2.17;;;10.50;99.90;;;;;;8401984;28;20034;-79
2023/09/24 01:21:41;;;;;;;2.75;1.50;;;10.50;99.90;;;;;;8417271;28;20028;-78
2023/09/24 01:25:45;;;;;;;4.28;1.50;;;10.80;99.90;;;;;;8416506;28;20059;-80
2023/09/24 01:29:47;;;;;;;3.55;1.73;;;10.70;99.90;;;;;;8401204;28;20110;-80
2023/09/24 01:33:48;;;;;;;2.88;1.65;;;10.50;99.90;;;;;;8398026;28;20024;-79
2023/09/24 01:37:48;;;;;;;7.10;1.73;;;10.30;99.90;;;;;;8389100;28;20024;-80
2023/09/24 01:41:49;;;;;;;3.78;1.70;;;10.30;99.90;;;;;;8401875;28;20461;-78
2023/09/24 01:45:51;;;;;;;4.28;1.73;;;10.30;99.90;;;;;;8402471;28;20032;-80
2023/09/24 01:49:52;;;;;;;3.38;1.58;;;10.30;99.90;;;;;;8386231;28;20039;-79
2023/09/24 01:53:52;;;;;;;5.57;1.80;;;10.30;99.90;;;;;;8399563;28;20028;-79
2023/09/24 01:57:54;;;;;;;3.83;1.80;;;10.00;99.90;;;;;;8404987;28;20050;-78
2023/09/24 02:01:54;;;;;;;4.57;2.00;;;9.80;99.90;;;;;;8422122;28;20032;-79
2023/09/24 02:05:55;;;;;;;3.55;1.77;;;9.60;99.90;;;;;;8417882;28;20055;-79
2023/09/24 02:09:55;;;;;;;4.32;2.00;;;9.40;99.90;;;;;;8395213;28;20067;-78
2023/09/24 02:13:56;;;;;;;3.25;1.80;;;9.20;99.90;;;;;;8413714;28;20036;-79
2023/09/24 02:17:56;;;;;;;7.13;2.08;;;9.10;99.90;;;;;;8412661;28;20377;-79
2023/09/24 02:21:57;;;;;;;2.65;1.52;;;8.90;99.90;;;;;;8421674;28;20090;-79
2023/09/24 02:25:57;;;;;;;2.30;1.73;;;8.70;99.90;;;;;;8401019;28;20517;-77
2023/09/24 02:29:58;;;;;;;5.10;2.25;;;8.60;99.90;;;;;;8401026;28;20032;-78
2023/09/24 02:33:59;;;;;;;5.90;2.58;;;8.70;99.90;;;;;;8393828;28;20416;-79
2023/09/24 02:38:00;;;;;;;4.88;3.22;;;8.60;99.90;;;;;;8393260;28;20021;-79
2023/09/24 02:42:01;;;;;;;5.15;1.98;;;8.40;99.90;;;;;;8400240;28;20024;-78
2023/09/24 02:46:03;;;;;;;4.13;1.42;;;8.30;99.90;;;;;;8415910;28;20037;-79
2023/09/24 02:50:08;;;;;;;3.63;1.55;;;8.50;99.90;;;;;;8391183;28;20029;-79
2023/09/24 02:54:09;;;;;;;3.85;1.65;;;8.10;99.90;;;;;;8396465;28;20412;-79
2023/09/24 02:58:09;;;;;;;20.08;2.88;;;7.80;99.90;;;;;;8406878;28;20021;-79
2023/09/24 03:02:10;;;;;;;3.22;2.20;;;7.70;99.90;;;;;;8416692;28;20021;-77
2023/09/24 03:06:12;;;;;;;32.00;3.10;;;7.60;99.90;;;;;;8402119;28;20024;-79
2023/09/24 03:10:13;;;;;;;28.83;3.22;;;7.70;99.90;;;;;;8427983;28;20103;-77
2023/09/24 03:14:14;;;;;;;5.80;2.72;;;7.80;99.90;;;;;;8407534;28;20054;-79
2023/09/24 03:18:14;;;;;;;50.67;3.63;;;7.80;99.90;;;;;;8405761;28;20622;-79
2023/09/24 03:22:15;;;;;;;31.08;3.72;;;7.80;99.90;;;;;;8394639;28;20020;-78
2023/09/24 03:26:16;;;;;;;65.85;4.10;;;7.80;99.90;;;;;;8394989;28;20434;-79
2023/09/24 03:30:17;;;;;;;49.58;3.55;;;7.80;99.90;;;;;;8400486;28;20054;-78
2023/09/24 03:34:18;;;;;;;52.35;4.07;;;7.80;99.90;;;;;;8405153;28;20028;-79
2023/09/24 03:38:19;;;;;;;18.58;2.72;;;7.90;99.90;;;;;;8401542;28;20031;-79
2023/09/24 03:42:19;;;;;;;45.25;3.00;;;7.90;99.90;;;;;;8405400;28;20039;-78
2023/09/24 03:46:20;;;;;;;51.78;3.00;;;7.90;99.90;;;;;;8428352;28;20028;-78
2023/09/24 03:50:20;;;;;;;81.43;3.80;;;8.20;99.90;;;;;;8416174;28;20246;-80
2023/09/24 03:54:21;;;;;;;35.33;3.40;;;8.00;99.90;;;;;;8426131;28;20036;-79
2023/09/24 03:58:21;;;;;;;54.17;4.03;;;7.80;99.90;;;;;;8405217;28;20020;-79
2023/09/24 04:02:23;;;;;;;10.32;2.63;;;7.60;99.90;;;;;;8423787;28;20110;-77
2023/09/24 04:06:23;;;;;;;3.80;2.20;;;7.40;99.90;;;;;;8407274;28;20062;-79
2023/09/24 04:10:27;;;;;;;8.63;2.10;;;7.40;99.90;;;;;;8409454;28;20446;-79
2023/09/24 04:14:27;;;;;;;27.20;2.80;;;7.40;99.90;;;;;;8420419;28;20024;-79
2023/09/24 04:18:28;;;;;;;78.60;3.75;;;7.40;99.90;;;;;;8422307;28;20020;-79
2023/09/24 04:22:29;;;;;;;58.20;3.00;;;7.60;99.90;;;;;;8424032;28;20024;-78
2023/09/24 04:26:29;;;;;;;5.43;2.60;;;7.40;99.90;;;;;;8400728;28;20640;-79
2023/09/24 04:30:30;;;;;;;3.17;2.42;;;7.20;99.90;;;;;;8395733;28;20124;-79
2023/09/24 04:34:30;;;;;;;4.78;1.80;;;7.10;99.90;;;;;;8392574;28;20048;-77
2023/09/24 04:38:31;;;;;;;34.53;2.40;;;7.30;99.90;;;;;;8424028;28;20032;-79
2023/09/24 04:42:31;;;;;;;107.95;4.05;;;7.20;99.90;;;;;;8410664;28;20031;-78
2023/09/24 04:46:32;;;;;;;162.52;5.03;;;7.10;99.90;;;;;;8410042;28;20461;-77
2023/09/24 04:50:33;;;;;;;123.70;5.03;;;7.00;99.90;;;;;;8405938;28;20016;-78
2023/09/24 04:54:34;;;;;;;290.75;7.32;;;6.90;99.90;;;;;;8407717;28;20027;-78
2023/09/24 04:58:35;;;;;;;53.20;2.53;;;6.80;99.90;;;;;;8406073;28;20097;-79
2023/09/24 05:02:35;;;;;;;37.20;2.42;;;6.60;99.90;;;;;;8397698;28;20024;-78
2023/09/24 05:06:36;;;;;;;50.70;2.47;;;6.60;99.90;;;;;;8426068;28;20039;-79
2023/09/24 05:10:40;;;;;;;3.72;1.67;;;6.50;99.90;;;;;;8405450;28;20058;-78
2023/09/24 05:14:41;;;;;;;3.08;1.85;;;6.50;99.90;;;;;;8398470;28;20036;-78
2023/09/24 05:18:42;;;;;;;3.03;2.30;;;6.60;99.90;;;;;;8393325;28;20029;-78
2023/09/24 05:22:42;;;;;;;2.90;1.98;;;6.60;99.90;;;;;;8393104;28;20115;-79
2023/09/24 05:26:43;;;;;;;19.58;2.63;;;6.40;99.90;;;;;;8396940;28;20487;-77
2023/09/24 05:30:54;;;;;;;28.10;2.50;;;6.20;99.90;;;;;;8411323;28;20450;-79
2023/09/24 05:34:55;;;;;;;38.03;3.00;;;6.20;99.90;;;;;;8403643;28;20072;-78
2023/09/24 05:38:55;;;;;;;33.00;3.05;;;6.30;99.90;;;;;;8397081;28;20020;-78
2023/09/24 05:42:56;;;;;;;24.58;2.70;;;6.30;99.90;;;;;;8417801;28;20034;-82
2023/09/24 05:46:56;;;;;;;51.47;3.20;;;6.40;99.90;;;;;;8404239;28;20028;-82
2023/09/24 05:51:03;;;;;;;20.55;2.55;;;6.40;99.90;;;;;;8407888;28;20020;-82
2023/09/24 05:55:03;;;;;;;51.13;3.15;;;6.50;99.90;;;;;;8402535;28;20055;-82
2023/09/24 05:59:04;;;;;;;36.35;2.80;;;6.80;99.90;;;;;;8395871;28;20124;-80
2023/09/24 06:03:05;;;;;;;7.20;2.13;;;7.00;99.90;;;;;;8401607;28;20020;-82
2023/09/24 06:07:05;;;;;;;9.93;2.10;;;7.20;99.90;;;;;;8419713;28;20547;-82
2023/09/24 06:11:08;;;;;;;21.83;2.30;;;7.40;99.90;;;;;;8407770;28;20051;-82
2023/09/24 06:15:10;;;;;;;16.05;2.58;;;7.50;99.90;;;;;;8407032;28;20031;-81
2023/09/24 06:19:11;;;;;;;13.57;2.10;;;7.60;99.90;;;;;;8407319;28;20027;-81
2023/09/24 06:23:11;;;;;;;11.48;2.30;;;7.70;99.90;;;;;;8418815;28;20499;-82
2023/09/24 06:27:12;;;;;;;6.82;2.00;;;7.70;99.90;;;;;;8411298;28;20085;-78
2023/09/24 06:31:13;;;;;;;3.88;1.73;;;7.80;99.90;;;;;;8402906;28;20077;-78
2023/09/24 06:35:13;;;;;;;1.90;1.70;;;8.00;99.90;;;;;;8419147;28;20523;-79
2023/09/24 06:39:15;;;;;;;16.00;2.00;;;8.10;99.90;;;;;;8410729;28;20034;-79
2023/09/24 06:43:15;;;;;;;6.78;1.38;;;8.10;99.90;;;;;;8426704;28;20016;-79
2023/09/24 06:47:16;;;;;;;30.05;2.50;;;8.30;99.90;;;;;;8409781;28;20020;-79
2023/09/24 06:51:17;;;;;;;2.55;1.88;;;8.20;99.90;;;;;;8402316;28;20031;-78
2023/09/24 06:55:17;;;;;;;2.88;2.38;;;8.40;99.90;;;;;;8404505;28;20388;-79
2023/09/24 06:59:18;;;;;;;2.65;2.17;;;8.40;99.90;;;;;;8399218;28;20047;-79
2023/09/24 07:03:18;;;;;;;4.32;2.67;;;8.50;99.90;;;;;;8403152;28;20024;-78
2023/09/24 07:07:19;;;;;;;3.60;2.75;;;8.60;99.90;;;;;;8402730;28;20078;-78
2023/09/24 07:11:32;;;;;;;3.58;3.10;;;8.70;99.90;;;;;;8403694;28;20016;-78
2023/09/24 07:15:33;;;;;;;6.13;3.65;;;9.10;99.90;;;;;;8401242;28;20109;-78
2023/09/24 07:19:34;;;;;;;6.13;3.42;;;9.20;99.90;;;;;;8415835;28;20089;-78
2023/09/24 07:23:35;;;;;;;4.78;3.30;;;9.40;99.90;;;;;;8418310;28;20032;-77
2023/09/24 07:27:35;;;;;;;6.38;4.13;;;9.70;99.90;;;;;;8404996;28;20511;-79
2023/09/24 07:31:36;;;;;;;6.70;4.05;;;9.70;99.90;;;;;;8420773;28;20107;-78
2023/09/24 07:35:37;;;;;;;8.20;4.72;;;10.20;99.90;;;;;;8403024;28;20028;-78
2023/09/24 07:39:37;;;;;;;6.57;4.20;;;10.50;99.90;;;;;;8406008;28;20012;-78
2023/09/24 07:43:40;;;;;;;6.72;3.58;;;11.10;99.90;;;;;;8406086;28;20028;-77
2023/09/24 07:47:41;;;;;;;5.53;3.60;;;11.20;99.90;;;;;;8404002;28;20701;-79
2023/09/24 07:51:41;;;;;;;6.07;2.63;;;11.30;99.90;;;;;;8404843;28;20023;-78
2023/09/24 07:55:42;;;;;;;4.45;2.35;;;11.30;99.90;;;;;;8405976;28;20028;-78
2023/09/24 07:59:42;;;;;;;10.52;2.72;;;11.70;99.90;;;;;;8409434;28;20020;-78
2023/09/24 08:03:45;;;;;;;5.82;2.10;;;12.00;99.90;;;;;;8417651;28;20028;-79
2023/09/24 08:07:46;;;;;;;3.38;1.80;;;12.70;99.90;;;;;;8418021;28;20031;-79
2023/09/24 08:11:46;;;;;;;2.78;1.70;;;13.30;99.90;;;;;;8404699;28;20063;-79
2023/09/24 08:15:48;;;;;;;3.47;1.60;;;13.80;99.90;;;;;;8401151;28;20024;-78
2023/09/24 08:19:49;;;;;;;5.93;1.65;;;14.20;99.90;;;;;;8414142;28;20027;-78
2023/09/24 08:23:50;;;;;;;5.05;1.73;;;14.40;99.90;;;;;;8400982;28;20488;-79
2023/09/24 08:27:50;;;;;;;2.75;1.83;;;14.90;99.90;;;;;;8398932;28;20047;-78
2023/09/24 08:31:51;;;;;;;2.55;1.40;;;15.10;99.90;;;;;;8402124;28;20485;-78
2023/09/24 08:35:52;;;;;;;4.32;1.67;;;15.30;99.90;;;;;;8400391;28;20021;-77
2023/09/24 08:39:52;;;;;;;4.50;1.65;;;14.90;99.90;;;;;;8397582;28;20069;-77
2023/09/24 08:43:55;;;;;;;4.10;1.88;;;14.80;99.90;;;;;;8398498;28;20485;-77
2023/09/24 08:47:57;;;;;;;2.72;1.60;;;14.70;99.90;;;;;;8401369;28;20495;-79
2023/09/24 08:52:03;;;;;;;6.43;2.03;;;14.70;99.90;;;;;;8401926;28;20028;-80
2023/09/24 08:56:03;;;;;;;4.88;1.52;;;14.90;99.90;;;;;;8400634;28;20024;-79
2023/09/24 09:00:06;;;;;;;2.45;1.70;;;15.00;99.90;;;;;;8400760;28;20039;-79
2023/09/24 09:04:06;;;;;;;5.75;1.85;;;15.10;99.90;;;;;;8405038;28;20024;-79
2023/09/24 09:08:07;;;;;;;2.88;1.67;;;15.30;99.90;;;;;;8399575;28;20085;-79
2023/09/24 09:12:18;;;;;;;3.28;1.70;;;15.70;99.90;;;;;;8402952;28;20024;-79
2023/09/24 09:16:20;;;;;;;;;;;15.90;99.90;;;;;;8404205;28;20031;-80
2023/09/24 09:20:41;;;;;;;3.92;1.70;;;16.00;99.90;;;;;;8410269;28;19919;-78
2023/09/24 09:24:41;;;;;;;1.73;1.60;;;16.10;99.90;;;;;;8414694;28;20116;-79
2023/09/24 09:28:42;;;;;;;3.50;1.58;;;16.30;99.90;;;;;;8420030;28;20036;-79
2023/09/24 09:32:44;;;;;;;2.70;1.52;;;16.80;99.90;;;;;;8412399;28;20050;-79
2023/09/24 09:36:44;;;;;;;3.35;1.80;;;17.20;99.90;;;;;;8401437;28;20484;-80
2023/09/24 09:40:46;;;;;;;3.85;1.45;;;16.60;99.90;;;;;;8403434;28;20027;-79
2023/09/24 09:44:49;;;;;;;1.95;1.20;;;16.00;99.90;;;;;;8406637;28;20381;-80
2023/09/24 09:48:55;;;;;;;3.47;1.48;;;16.20;99.90;;;;;;8404172;28;20161;-79
2023/09/24 09:52:56;;;;;;;3.08;1.50;;;16.70;99.90;;;;;;8402867;28;20038;-80
2023/09/24 09:56:57;;;;;;;3.97;1.50;;;16.60;99.90;;;;;;8412934;28;20028;-80
2023/09/24 10:01:00;;;;;;;4.13;1.50;;;16.30;99.90;;;;;;8401211;28;20043;-79
2023/09/24 10:05:02;;;;;;;3.50;1.23;;;15.80;99.90;;;;;;8403042;28;20036;-80
2023/09/24 10:09:29;;;;;;;5.63;1.58;;;15.50;99.90;;;;;;8401742;28;20024;-80
2023/09/24 10:13:45;;;;;;;2.40;1.27;;;15.90;99.90;;;;;;8410441;28;20149;-80
2023/09/24 10:17:45;;;;;;;3.78;1.45;;;17.20;99.90;;;;;;8402088;28;20030;-79
2023/09/24 10:21:47;;;;;;;2.90;1.30;;;17.00;99.90;;;;;;8413197;28;20012;-80
2023/09/24 10:25:48;;;;;;;2.75;1.20;;;16.20;99.90;;;;;;8403953;28;20046;-79
2023/09/24 10:29:53;;;;;;;4.50;1.30;;;16.60;99.90;;;;;;8401873;28;20024;-80
2023/09/24 10:33:57;;;;;;;3.28;1.40;;;17.80;99.90;;;;;;8399940;28;20416;-80
2023/09/24 10:38:00;;;;;;;1.90;1.20;;;17.20;99.90;;;;;;8404570;28;20077;-78
2023/09/24 10:42:10;;;;;;;3.15;1.30;;;17.20;99.90;;;;;;8402337;28;20051;-80
2023/09/24 10:46:27;;;;;;;3.77;1.03;;;17.90;99.90;;;;;;8400731;28;20028;-80
2023/09/24 10:50:28;;;;;;;3.28;1.20;;;17.40;99.90;;;;;;8416084;28;20015;-79
2023/09/24 10:54:28;;;;;;;4.00;1.13;;;16.80;99.90;;;;;;8410145;28;20026;-80
2023/09/24 10:58:29;;;;;;;2.75;1.10;;;16.20;99.90;;;;;;8403629;28;20031;-79
2023/09/24 11:02:29;;;;;;;4.10;1.17;;;16.80;99.90;;;;;;8407259;28;20027;-81
2023/09/24 11:06:31;;;;;;;3.67;1.48;;;19.60;99.90;;;;;;8416065;28;20476;-79
2023/09/24 11:10:32;;;;;;;3.03;1.10;;;20.00;99.90;;;;;;8414529;28;20024;-80
2023/09/24 11:14:32;;;;;;;1.75;0.95;;;19.20;99.90;;;;;;8422117;28;20028;-80
2023/09/24 11:18:33;;;;;;;2.65;1.00;;;18.30;99.90;;;;;;8408206;28;20589;-81
2023/09/24 11:22:33;;;;;;;1.98;1.08;;;18.30;99.90;;;;;;8400636;28;20017;-80
2023/09/24 11:26:34;;;;;;;2.70;0.80;;;19.60;99.90;;;;;;8400451;28;20028;-80
2023/09/24 11:30:46;;;;;;;3.05;0.93;;;19.20;99.90;;;;;;8404209;28;20020;-80
2023/09/24 11:34:47;;;;;;;4.13;0.90;;;18.40;99.90;;;;;;8405118;28;20107;-80
2023/09/24 11:38:49;;;;;;;1.38;0.90;;;21.10;99.90;;;;;;8403174;28;20013;-80
2023/09/24 11:42:52;;;;;;;1.20;0.73;;;22.70;99.90;;;;;;8392077;28;20021;-80
2023/09/24 11:46:52;;;;;;;1.88;0.90;;;20.10;99.90;;;;;;8407943;28;20026;-79
2023/09/24 11:51:00;;;;;;;2.20;0.90;;;18.10;99.90;;;;;;8416417;28;20096;-80
2023/09/24 11:55:01;;;;;;;2.47;0.95;;;17.40;99.90;;;;;;8392608;28;20028;-79
2023/09/24 11:59:02;;;;;;;2.80;0.90;;;17.10;99.90;;;;;;8411121;28;20013;-80
2023/09/24 12:03:04;;;;;;;2.00;0.80;;;17.50;99.90;;;;;;8407363;28;20012;-79
2023/09/24 12:07:04;;;;;;;1.45;0.80;;;20.60;99.90;;;;;;8420704;28;20020;-79
2023/09/24 12:11:05;;;;;;;1.73;0.85;;;21.10;99.90;;;;;;8400085;28;20511;-79
2023/09/24 12:15:07;;;;;;;1.15;0.70;;;19.60;99.90;;;;;;8401109;28;20098;-80
2023/09/24 12:19:07;;;;;;;1.85;0.75;;;18.70;99.90;;;;;;8416437;28;20104;-79
2023/09/24 12:23:09;;;;;;;2.17;0.90;;;20.30;99.90;;;;;;8393133;28;20023;-79
2023/09/24 12:27:10;;;;;;;4.30;1.30;;;21.50;99.90;;;;;;8402520;28;20511;-79
2023/09/24 12:31:11;;;;;;;1.88;0.77;;;20.10;99.90;;;;;;8408737;28;20020;-80
2023/09/24 12:35:12;;;;;;;3.42;1.20;;;19.00;99.90;;;;;;8397668;28;20035;-82
2023/09/24 12:39:12;;;;;;;1.65;0.70;;;18.90;99.90;;;;;;8421494;28;20016;-81
2023/09/24 12:43:13;;;;;;;1.45;0.85;;;18.60;99.90;;;;;;8400067;28;20012;-79
2023/09/24 12:47:14;;;;;;;1.48;0.77;;;19.80;99.90;;;;;;8396154;28;20125;-80
2023/09/24 12:51:14;;;;;;;1.55;0.98;;;19.80;99.90;;;;;;8415161;28;20084;-80
2023/09/24 12:55:16;;;;;;;1.67;0.88;;;18.40;99.90;;;;;;8393443;28;20511;-80
2023/09/24 12:59:16;;;;;;;1.83;0.85;;;18.00;99.90;;;;;;8412284;28;20477;-79
2023/09/24 13:03:17;;;;;;;2.40;0.93;;;21.30;99.90;;;;;;8395567;28;20080;-77
2023/09/24 13:07:18;;;;;;;1.23;0.80;;;23.40;99.90;;;;;;8395071;28;20107;-79
2023/09/24 13:11:19;;;;;;;2.50;0.77;;;24.20;99.90;;;;;;8403435;28;20041;-80
2023/09/24 13:15:20;;;;;;;1.30;0.65;;;25.70;96.40;;;;;;8424383;28;20032;-81
2023/09/24 13:19:21;;;;;;;1.95;1.00;;;25.00;96.30;;;;;;8395920;28;20028;-80
2023/09/24 13:23:21;;;;;;;1.63;0.80;;;24.60;93.40;;;;;;8396709;28;20032;-80
2023/09/24 13:27:22;;;;;;;2.35;1.10;;;25.80;93.40;;;;;;8403127;28;20039;-81
2023/09/24 13:31:23;;;;;;;2.70;0.90;;;26.40;91.20;;;;;;8399420;28;20020;-79
2023/09/24 13:35:23;;;;;;;1.60;0.93;;;26.90;90.70;;;;;;8388540;28;20032;-80
2023/09/24 13:39:24;;;;;;;1.95;0.70;;;26.20;89.10;;;;;;8408640;28;20606;-81
2023/09/24 13:43:25;;;;;;;1.25;0.60;;;24.60;87.50;;;;;;8391341;28;20046;-81
2023/09/24 13:47:25;;;;;;;1.33;0.65;;;26.00;84.20;;;;;;8405233;28;20107;-80
2023/09/24 13:51:26;;;;;;;1.48;0.70;;;25.30;82.80;;;;;;8402019;28;20383;-80
2023/09/24 13:55:27;;;;;;;1.85;0.80;;;26.10;83.80;;;;;;8381351;28;20030;-79
2023/09/24 13:59:28;;;;;;;2.50;0.77;;;26.60;78.30;;;;;;8385715;28;20103;-79
2023/09/24 14:03:29;;;;;;;2.03;0.70;;;25.80;82.10;;;;;;8421354;28;20021;-80
2023/09/24 14:07:29;;;;;;;1.35;0.82;;;26.20;80.50;;;;;;8398415;28;20035;-80
2023/09/24 14:15:49;;;;;;;1.40;0.82;;;25.70;84.00;;;;;;8412670;28;20035;-80
2023/09/24 14:19:53;;;;;;;1.48;0.88;;;25.40;80.50;;;;;;8392875;28;20028;-79
2023/09/24 14:23:54;;;;;;;3.75;0.95;;;23.10;84.70;;;;;;8393240;28;20495;-79
2023/09/24 14:27:54;;;;;;;2.88;0.90;;;24.60;85.60;;;;;;8393592;28;20056;-80
2023/09/24 14:31:55;;;;;;;1.48;1.00;;;24.00;80.30;;;;;;8404640;28;20028;-80
2023/09/24 14:35:59;;;;;;;1.48;0.93;;;23.50;83.10;;;;;;8426828;28;20447;-79
2023/09/24 14:39:59;;;;;;;1.73;0.80;;;23.60;81.80;;;;;;8411526;28;20539;-81
2023/09/24 14:44:00;;;;;;;0.95;0.70;;;23.30;86.70;;;;;;8413840;28;20016;-80
2023/09/24 14:48:00;;;;;;;1.42;0.80;;;23.10;89.20;;;;;;8409146;28;21442;-80
2023/09/24 14:52:01;;;;;;;2.33;1.05;;;21.60;87.10;;;;;;8392394;28;20025;-80
2023/09/24 14:56:03;;;;;;;1.45;0.85;;;20.80;90.40;;;;;;8401594;28;20033;-80
2023/09/24 15:00:05;;;;;;;2.58;0.80;;;20.00;91.30;;;;;;8394065;28;20554;-78
2023/09/24 15:04:07;;;;;;;2.75;1.00;;;18.60;94.20;;;;;;8404578;28;20081;-80
2023/09/24 15:08:09;;;;;;;1.75;0.90;;;18.00;95.70;;;;;;8412855;28;20031;-80
2023/09/24 15:12:09;;;;;;;1.55;0.80;;;17.40;97.50;;;;;;8419380;28;20103;-80
2023/09/24 15:16:10;;;;;;;1.40;0.80;;;17.10;98.90;;;;;;8415221;28;20140;-80
2023/09/24 15:20:11;;;;;;;1.60;1.20;;;16.80;99.70;;;;;;8402185;28;20597;-79
2023/09/24 15:24:12;;;;;;;2.67;1.23;;;16.50;99.90;;;;;;8407491;28;20024;-81
2023/09/24 15:28:13;;;;;;;1.85;0.93;;;16.50;99.90;;;;;;8404287;28;20102;-80
2023/09/24 15:32:13;;;;;;;1.35;0.90;;;16.40;99.90;;;;;;8401563;28;20016;-81
2023/09/24 15:36:16;;;;;;;2.95;1.10;;;16.50;99.90;;;;;;8413513;28;20039;-80
2023/09/24 15:40:17;;;;;;;3.00;1.13;;;16.60;99.90;;;;;;8410978;28;20110;-79
2023/09/24 15:44:18;;;;;;;3.72;1.35;;;16.50;99.90;;;;;;8434553;28;20347;-80
2023/09/24 15:48:19;;;;;;;1.73;0.93;;;16.60;99.90;;;;;;8405063;28;20109;-80
2023/09/24 15:52:20;;;;;;;1.25;1.08;;;16.60;99.90;;;;;;8411560;28;20023;-80
2023/09/24 15:56:20;;;;;;;1.40;1.00;;;16.50;99.90;;;;;;8427553;28;20060;-82
2023/09/24 16:00:48;;;;;;;3.83;1.20;;;16.50;99.90;;;;;;8407846;28;20043;-82
2023/09/24 16:04:48;;;;;;;3.60;1.02;;;16.30;99.90;;;;;;8411915;28;20028;-82
2023/09/24 16:08:50;;;;;;;1.65;1.00;;;16.10;99.90;;;;;;8409599;28;20054;-83
2023/09/24 16:12:50;;;;;;;2.58;0.80;;;15.90;99.90;;;;;;8404013;28;20028;-82
2023/09/24 16:16:51;;;;;;;2.65;1.00;;;16.20;99.90;;;;;;8402926;28;20039;-83
2023/09/24 16:20:58;;;;;;;1.70;1.10;;;16.60;99.90;;;;;;8406812;28;20396;-82
2023/09/24 16:24:59;;;;;;;1.33;0.93;;;16.10;99.90;;;;;;8395291;28;20032;-83
2023/09/24 16:29:00;;;;;;;1.80;1.10;;;15.50;99.90;;;;;;8413740;28;20042;-82
2023/09/24 16:33:04;;;;;;;3.47;0.98;;;15.20;99.90;;;;;;8409013;28;20078;-83
2023/09/24 16:37:04;;;;;;;2.50;1.17;;;14.80;99.90;;;;;;8411492;28;20069;-80
2023/09/24 16:41:05;;;;;;;2.42;1.10;;;14.70;99.90;;;;;;8407581;28;20051;-81
2023/09/24 16:45:06;;;;;;;1.75;1.20;;;14.30;99.90;;;;;;8412049;28;20603;-79
2023/09/24 16:49:06;;;;;;;2.10;1.00;;;13.90;99.90;;;;;;8401764;28;20035;-80
2023/09/24 16:53:07;;;;;;;2.05;1.00;;;13.80;99.90;;;;;;8393231;28;20032;-81
2023/09/24 16:57:08;;;;;;;1.98;1.17;;;13.60;99.90;;;;;;8406628;28;20020;-80
2023/09/24 17:01:19;;;;;;;2.10;1.08;;;13.30;99.90;;;;;;8426038;28;20055;-81
2023/09/24 17:05:20;;;;;;;3.78;1.05;;;13.20;99.90;;;;;;8408529;28;20064;-80
2023/09/24 17:09:22;;;;;;;2.95;1.30;;;13.10;99.90;;;;;;8411841;28;20523;-79
2023/09/24 17:13:23;;;;;;;4.03;1.10;;;12.80;99.90;;;;;;8405765;28;20024;-83
2023/09/24 17:17:24;;;;;;;3.03;1.10;;;12.60;99.90;;;;;;8416357;28;20036;-81
2023/09/24 17:21:25;;;;;;;2.08;1.00;;;12.30;99.90;;;;;;8399806;28;20403;-81
2023/09/24 17:25:26;;;;;;;3.28;1.50;;;12.10;99.90;;;;;;8405185;28;20029;-81
2023/09/24 17:29:27;;;;;;;1.75;1.10;;;12.10;99.90;;;;;;8407830;28;20123;-80
2023/09/24 17:33:27;;;;;;;3.25;1.45;;;11.80;99.90;;;;;;8397609;28;20020;-81
2023/09/24 17:37:28;;;;;;;2.67;1.23;;;11.50;99.90;;;;;;8423385;28;20028;-81
2023/09/24 17:41:29;;;;;;;1.85;1.20;;;11.10;99.90;;;;;;8400639;28;20112;-81
2023/09/24 17:45:30;;;;;;;2.13;1.40;;;11.00;99.90;;;;;;8407683;28;20476;-81
2023/09/24 17:49:30;;;;;;;2.03;1.30;;;10.70;99.90;;;;;;8410773;28;20080;-81
2023/09/24 17:53:31;;;;;;;4.55;1.50;;;10.60;99.90;;;;;;8400818;28;20491;-81
2023/09/24 17:57:31;;;;;;;3.17;1.30;;;10.40;99.90;;;;;;8425938;28;20047;-80
2023/09/24 18:01:32;;;;;;;2.22;1.42;;;10.30;99.90;;;;;;8422179;28;20020;-80
2023/09/24 18:05:33;;;;;;;3.50;1.45;;;10.20;99.90;;;;;;8410402;28;20031;-81
2023/09/24 18:09:33;;;;;;;2.35;1.58;;;10.10;99.90;;;;;;8401492;28;20020;-81
2023/09/24 18:13:34;;;;;;;1.40;1.20;;;10.00;99.90;;;;;;8397722;28;20059;-81
2023/09/24 18:17:35;;;;;;;2.50;1.48;;;9.90;99.90;;;;;;8407613;28;20031;-81
2023/09/24 18:21:35;;;;;;;2.95;1.45;;;9.80;99.90;;;;;;8403846;28;20135;-81
2023/09/24 18:25:36;;;;;;;2.67;1.73;;;9.70;99.90;;;;;;8400615;28;20025;-80
2023/09/24 18:29:37;;;;;;;4.18;1.80;;;9.60;99.90;;;;;;8402917;28;20052;-80
2023/09/24 18:33:38;;;;;;;3.65;1.52;;;9.70;99.90;;;;;;8401487;28;20032;-81
2023/09/24 18:37:38;;;;;;;5.68;1.73;;;9.80;99.90;;;;;;8396453;28;20096;-81
2023/09/24 18:41:39;;;;;;;4.03;1.40;;;9.70;99.90;;;;;;8401223;28;20024;-80
2023/09/24 18:45:40;;;;;;;3.42;1.58;;;9.80;99.90;;;;;;8422931;28;20085;-79
2023/09/24 18:49:42;;;;;;;3.17;1.77;;;9.90;99.90;;;;;;8394206;28;20063;-80
2023/09/24 18:53:42;;;;;;;2.30;1.58;;;9.90;99.90;;;;;;8404375;28;20020;-80
2023/09/24 18:57:43;;;;;;;3.03;1.83;;;9.90;99.90;;;;;;8404256;28;20031;-81
2023/09/24 19:01:44;;;;;;;3.45;1.98;;;10.00;99.90;;;;;;8407489;28;20027;-80
2023/09/24 19:05:47;;;;;;;3.53;2.08;;;9.90;99.90;;;;;;8403797;28;20020;-81
2023/09/24 19:09:48;;;;;;;2.28;1.88;;;9.70;99.90;;;;;;8400021;28;20028;-80
2023/09/24 19:13:49;;;;;;;4.22;1.70;;;9.50;99.90;;;;;;8392711;28;20020;-80
2023/09/24 19:17:49;;;;;;;3.80;1.73;;;9.40;99.90;;;;;;8416259;28;20040;-80
2023/09/24 19:21:50;;;;;;;4.75;1.80;;;9.20;99.90;;;;;;8409273;28;20441;-81
2023/09/24 19:25:51;;;;;;;5.07;1.98;;;9.20;99.90;;;;;;8405600;28;20117;-80
2023/09/24 19:29:56;;;;;;;8.32;2.20;;;9.10;99.90;;;;;;8407380;28;20034;-80
2023/09/24 19:33:56;;;;;;;3.28;2.08;;;9.10;99.90;;;;;;8405429;28;20043;-80
2023/09/24 19:37:57;;;;;;;4.57;2.10;;;9.00;99.90;;;;;;8400525;28;20024;-80
2023/09/24 19:41:59;;;;;;;2.92;2.17;;;9.10;99.90;;;;;;8409670;28;20046;-80
2023/09/24 19:46:00;;;;;;;6.10;2.63;;;9.40;99.90;;;;;;8791240;22;20044;-80
2023/09/24 19:50:00;;;;;;;3.00;2.50;;;9.40;99.90;;;;;;8410320;28;20028;-81
2023/09/24 19:54:01;;;;;;;2.83;2.35;;;9.10;99.90;;;;;;8391098;28;20016;-80
2023/09/24 19:58:02;;;;;;;4.45;2.70;;;9.30;99.90;;;;;;8376182;28;20420;-80
2023/09/24 20:02:02;;;;;;;3.60;2.33;;;9.20;99.90;;;;;;8378190;28;20013;-80
2023/09/24 20:06:09;;;;;;;5.32;2.70;;;9.00;99.90;;;;;;8378149;28;20032;-81
2023/09/24 20:10:15;;;;;;;3.53;2.17;;;8.60;99.90;;;;;;8376165;28;20031;-80
2023/09/24 20:14:17;;;;;;;4.22;2.20;;;8.50;99.90;;;;;;8374080;28;20055;-81
2023/09/24 20:18:17;;;;;;;5.10;2.70;;;8.20;99.90;;;;;;8376767;28;20021;-81
2023/09/24 20:22:19;;;;;;;8.57;2.70;;;8.00;99.90;;;;;;8380620;28;20084;-79
2023/09/24 20:26:19;;;;;;;4.65;2.30;;;7.90;99.90;;;;;;8378195;28;20516;-81
2023/09/24 20:30:20;;;;;;;3.42;2.65;;;7.80;99.90;;;;;;8395126;28;20021;-81
2023/09/24 20:34:20;;;;;;;3.95;2.60;;;7.70;99.90;;;;;;8378310;28;20024;-79
2023/09/24 20:38:22;;;;;;;7.10;2.53;;;7.60;99.90;;;;;;8370732;28;20074;-80
2023/09/24 20:42:23;;;;;;;3.78;2.90;;;7.50;99.90;;;;;;8372169;28;20028;-80
2023/09/24 20:46:23;;;;;;;5.00;2.75;;;7.50;99.90;;;;;;8368830;28;20052;-80
2023/09/24 20:50:26;;;;;;;4.30;3.15;;;7.30;99.90;;;;;;8373206;28;20032;-81
2023/09/24 20:54:27;;;;;;;4.38;3.00;;;7.30;99.90;;;;;;8371141;28;20016;-80
2023/09/24 20:58:27;;;;;;;5.88;3.15;;;7.20;99.90;;;;;;8369127;28;20051;-80
2023/09/24 21:02:28;;;;;;;6.45;2.80;;;7.20;99.90;;;;;;8398241;28;20040;-80
2023/09/24 21:06:28;;;;;;;6.95;2.75;;;7.10;99.90;;;;;;8370145;28;20032;-80